Time;durP1;ratioP1;P1;durP2;ratioP2;P2;SDS_P1;SDS_P2;PMS_P1;PMS_P2;Temp;Humidity;BMP_temperature;BMP_pressure;BME280_temperature;BME280_humidity;BME280_pressure;Samples;Min_cycle;Max_cycle;Signal;HPM_P1;HPM_P2
2023/11/24 00:01:01;;;;;;;19.90;13.70;;;6.60;94.30;;;;;;5068094;28;20213;-64
2023/11/24 00:03:28;;;;;;;19.63;12.60;;;6.60;94.10;;;;;;5065535;28;20191;-64
2023/11/24 00:05:56;;;;;;;19.63;14.03;;;6.60;94.20;;;;;;5066623;28;20281;-65
2023/11/24 00:08:23;;;;;;;22.10;12.53;;;6.50;94.20;;;;;;5062055;28;20230;-64
2023/11/24 00:10:50;;;;;;;20.63;13.23;;;6.50;94.20;;;;;;5066118;28;20205;-64
2023/11/24 00:13:18;;;;;;;21.03;13.67;;;6.50;94.20;;;;;;5066524;28;20301;-64
2023/11/24 00:15:46;;;;;;;23.53;13.37;;;6.50;94.10;;;;;;5064047;28;20215;-64
2023/11/24 00:18:14;;;;;;;24.57;12.53;;;6.40;94.10;;;;;;5070869;28;20201;-64
2023/11/24 00:20:41;;;;;;;22.30;12.27;;;6.40;94.20;;;;;;5061115;28;20753;-64
2023/11/24 00:23:08;;;;;;;22.63;13.77;;;6.30;94.10;;;;;;5069573;28;20289;-64
2023/11/24 00:25:35;;;;;;;18.63;13.13;;;6.30;94.20;;;;;;5064466;28;20206;-64
2023/11/24 00:28:04;;;;;;;22.10;13.73;;;6.30;94.20;;;;;;5067088;28;20202;-64
2023/11/24 00:30:32;;;;;;;19.20;12.83;;;6.30;94.20;;;;;;5068300;28;20212;-64
2023/11/24 00:33:02;;;;;;;24.00;14.57;;;6.30;94.20;;;;;;5069281;28;20259;-64
2023/11/24 00:35:31;;;;;;;18.70;13.27;;;6.30;94.20;;;;;;5065483;28;20198;-64
2023/11/24 00:37:58;;;;;;;22.10;13.33;;;6.30;94.30;;;;;;5069200;28;20197;-64
2023/11/24 00:40:25;;;;;;;21.20;13.77;;;6.30;94.30;;;;;;5063514;28;20218;-64
2023/11/24 00:42:52;;;;;;;16.67;13.03;;;6.20;94.20;;;;;;5068636;28;20202;-64
2023/11/24 00:45:19;;;;;;;17.33;12.50;;;6.20;94.20;;;;;;5074688;28;20197;-64
2023/11/24 00:47:46;;;;;;;21.93;12.83;;;6.10;94.20;;;;;;5062258;28;20229;-64
2023/11/24 00:50:14;;;;;;;20.47;12.93;;;6.10;94.30;;;;;;5064421;28;20210;-64
2023/11/24 00:52:41;;;;;;;18.37;11.80;;;6.10;94.40;;;;;;5065181;28;20255;-64
2023/11/24 00:55:08;;;;;;;17.90;11.77;;;6.10;94.40;;;;;;5061770;28;20194;-64
2023/11/24 00:57:36;;;;;;;18.63;11.07;;;6.10;94.40;;;;;;5063312;28;20194;-65
2023/11/24 01:00:07;;;;;;;18.93;12.80;;;6.00;94.40;;;;;;5046323;28;20632;-64
2023/11/24 01:02:36;;;;;;;19.20;12.30;;;6.00;94.30;;;;;;5051465;28;20202;-64
2023/11/24 01:05:05;;;;;;;18.40;11.00;;;6.00;94.40;;;;;;5057930;28;20535;-64
2023/11/24 01:07:32;;;;;;;16.13;10.57;;;6.00;94.40;;;;;;5063464;28;20217;-64
2023/11/24 01:09:59;;;;;;;20.47;12.13;;;5.90;94.40;;;;;;5065512;28;20238;-64
2023/11/24 01:12:26;;;;;;;17.73;12.07;;;5.90;94.40;;;;;;5054125;28;20259;-64
2023/11/24 01:14:55;;;;;;;18.83;12.73;;;5.90;94.50;;;;;;5046515;28;20236;-64
2023/11/24 01:17:22;;;;;;;20.33;12.87;;;5.90;94.50;;;;;;5063298;28;20202;-64
2023/11/24 01:19:49;;;;;;;16.27;11.33;;;5.90;94.50;;;;;;5064338;28;20270;-64
2023/11/24 01:22:16;;;;;;;20.40;11.33;;;5.80;94.50;;;;;;5064514;28;20293;-64
2023/11/24 01:24:44;;;;;;;19.13;10.37;;;5.80;94.50;;;;;;5066859;28;20688;-65
2023/11/24 01:27:12;;;;;;;18.10;10.53;;;5.80;94.40;;;;;;5053980;28;20544;-64
2023/11/24 01:29:39;;;;;;;16.10;10.37;;;5.80;94.20;;;;;;5054635;28;20227;-64
2023/11/24 01:32:06;;;;;;;13.67;9.63;;;5.70;94.10;;;;;;5063519;28;20198;-64
2023/11/24 01:34:33;;;;;;;14.63;10.40;;;5.70;94.20;;;;;;5053361;28;20607;-64
2023/11/24 01:37:00;;;;;;;18.73;11.63;;;5.60;94.30;;;;;;5046380;28;20300;-64
2023/11/24 01:39:27;;;;;;;17.07;11.87;;;5.60;94.40;;;;;;5065284;28;20206;-64
2023/11/24 01:41:56;;;;;;;16.93;11.10;;;5.60;94.50;;;;;;5063535;28;20589;-64
2023/11/24 01:44:23;;;;;;;15.87;11.27;;;5.60;94.50;;;;;;5048190;28;20207;-64
2023/11/24 01:46:50;;;;;;;16.17;10.27;;;5.60;94.50;;;;;;5063614;28;20202;-64
2023/11/24 01:49:18;;;;;;;16.30;11.57;;;5.60;94.50;;;;;;5067847;28;20288;-64
2023/11/24 01:51:45;;;;;;;18.73;10.47;;;5.60;94.50;;;;;;5068194;28;20197;-64
2023/11/24 01:54:13;;;;;;;17.57;10.83;;;5.60;94.50;;;;;;5048113;28;20218;-64
2023/11/24 01:56:41;;;;;;;16.77;10.90;;;5.60;94.40;;;;;;5064952;28;20705;-64
2023/11/24 01:59:09;;;;;;;15.60;10.90;;;5.50;94.40;;;;;;5055294;28;20266;-64
2023/11/24 02:01:37;;;;;;;14.50;9.90;;;5.50;94.50;;;;;;5061397;28;20548;-64
2023/11/24 02:04:04;;;;;;;14.43;10.00;;;5.50;94.60;;;;;;5057276;28;20333;-64
2023/11/24 02:06:32;;;;;;;21.97;10.73;;;5.50;94.60;;;;;;5045590;28;20205;-64
2023/11/24 02:08:59;;;;;;;14.20;9.87;;;5.50;94.70;;;;;;5041968;28;20220;-64
2023/11/24 02:11:26;;;;;;;13.93;9.93;;;5.50;94.70;;;;;;5066062;28;20635;-64
2023/11/24 02:13:54;;;;;;;13.33;8.87;;;5.50;94.60;;;;;;5062230;28;20224;-64
2023/11/24 02:16:21;;;;;;;13.33;9.67;;;5.50;94.60;;;;;;5052621;28;20195;-64
2023/11/24 02:18:48;;;;;;;13.60;9.30;;;5.40;94.60;;;;;;5062426;28;20201;-64
2023/11/24 02:21:17;;;;;;;14.53;10.07;;;5.50;94.70;;;;;;5046654;28;20198;-64
2023/11/24 02:23:44;;;;;;;12.47;9.80;;;5.50;94.70;;;;;;5048107;28;20641;-64
2023/11/24 02:26:11;;;;;;;13.90;8.90;;;5.50;94.70;;;;;;5068886;28;20212;-64
2023/11/24 02:28:38;;;;;;;17.23;10.07;;;5.50;94.70;;;;;;5053688;28;20217;-64
2023/11/24 02:31:07;;;;;;;13.73;8.30;;;5.40;94.60;;;;;;5065940;28;20638;-64
2023/11/24 02:33:35;;;;;;;14.90;9.50;;;5.40;94.50;;;;;;5047413;28;20293;-64
2023/11/24 02:36:08;;;;;;;13.80;9.40;;;5.40;94.50;;;;;;5063350;28;20213;-64
2023/11/24 02:38:36;;;;;;;13.70;9.27;;;5.40;94.60;;;;;;5051200;28;20317;-64
2023/11/24 02:41:05;;;;;;;15.80;10.23;;;5.40;94.60;;;;;;5065547;28;20202;-64
2023/11/24 02:43:32;;;;;;;16.10;9.47;;;5.40;94.60;;;;;;5044990;28;20205;-64
2023/11/24 02:46:00;;;;;;;14.67;9.93;;;5.30;94.60;;;;;;5065907;28;20213;-64
2023/11/24 02:48:27;;;;;;;14.83;10.67;;;5.40;94.60;;;;;;5063284;28;20206;-64
2023/11/24 02:50:54;;;;;;;14.27;9.70;;;5.30;94.60;;;;;;5068371;28;20213;-64
2023/11/24 02:53:21;;;;;;;15.47;10.67;;;5.40;94.70;;;;;;5060003;28;20275;-63
2023/11/24 02:55:48;;;;;;;17.23;10.50;;;5.40;94.70;;;;;;5049792;28;20296;-64
2023/11/24 02:58:15;;;;;;;17.63;10.13;;;5.40;94.70;;;;;;5059508;28;20288;-63
2023/11/24 03:00:42;;;;;;;11.67;9.43;;;5.40;94.80;;;;;;5064619;28;20574;-63
2023/11/24 03:03:09;;;;;;;16.23;10.10;;;5.50;94.80;;;;;;5062284;28;20635;-64
2023/11/24 03:05:36;;;;;;;14.47;9.73;;;5.40;94.70;;;;;;5057303;28;20237;-64
2023/11/24 03:08:03;;;;;;;14.73;9.87;;;5.40;94.70;;;;;;5058935;28;20194;-63
2023/11/24 03:10:30;;;;;;;14.00;9.83;;;5.40;94.60;;;;;;5064816;28;20263;-64
2023/11/24 03:12:57;;;;;;;11.83;9.57;;;5.40;94.60;;;;;;5050882;28;20251;-64
2023/11/24 03:15:25;;;;;;;14.00;9.43;;;5.50;94.70;;;;;;5069811;28;20205;-64
2023/11/24 03:17:52;;;;;;;14.43;9.17;;;5.50;94.70;;;;;;5057797;28;20223;-64
2023/11/24 03:20:21;;;;;;;15.50;9.33;;;5.50;94.70;;;;;;5062725;28;20792;-64
2023/11/24 03:22:48;;;;;;;12.17;8.13;;;5.50;94.70;;;;;;5064287;28;20214;-64
2023/11/24 03:25:15;;;;;;;13.70;8.57;;;5.50;94.60;;;;;;5052226;28;20615;-64
2023/11/24 03:27:42;;;;;;;12.17;8.27;;;5.50;94.50;;;;;;5069780;28;20519;-64
2023/11/24 03:30:10;;;;;;;13.33;8.83;;;5.50;94.50;;;;;;5048524;28;20256;-64
2023/11/24 03:32:37;;;;;;;15.03;9.07;;;5.50;94.60;;;;;;5050625;28;20638;-64
2023/11/24 03:35:07;;;;;;;12.83;8.53;;;5.50;94.50;;;;;;5068823;28;20304;-64
2023/11/24 03:37:34;;;;;;;15.00;9.30;;;5.50;94.50;;;;;;5070463;28;20189;-65
2023/11/24 03:40:01;;;;;;;11.60;8.47;;;5.50;94.60;;;;;;5071537;28;20267;-64
2023/11/24 03:42:28;;;;;;;11.00;7.63;;;5.50;94.50;;;;;;5071084;28;20220;-64
2023/11/24 03:44:55;;;;;;;10.90;8.03;;;5.50;94.50;;;;;;5063189;28;20646;-64
2023/11/24 03:47:23;;;;;;;15.13;9.03;;;5.50;94.60;;;;;;5063906;28;20202;-64
2023/11/24 03:49:50;;;;;;;13.17;7.97;;;5.50;94.60;;;;;;5065954;28;20212;-64
2023/11/24 03:52:17;;;;;;;10.93;7.43;;;5.60;94.70;;;;;;5074637;28;20643;-64
2023/11/24 03:54:44;;;;;;;15.63;9.10;;;5.60;94.60;;;;;;5062044;28;20214;-64
2023/11/24 03:57:12;;;;;;;12.43;7.83;;;5.60;94.60;;;;;;5066655;28;20635;-64
2023/11/24 03:59:39;;;;;;;14.50;8.60;;;5.60;94.60;;;;;;5063689;28;20289;-64
2023/11/24 04:02:06;;;;;;;13.00;8.53;;;5.60;94.60;;;;;;5058716;28;20211;-64
2023/11/24 04:04:33;;;;;;;12.57;8.57;;;5.60;94.70;;;;;;5066958;28;20678;-65
2023/11/24 04:07:00;;;;;;;10.33;8.00;;;5.60;94.50;;;;;;5065998;28;20261;-63
2023/11/24 04:09:27;;;;;;;13.43;8.87;;;5.60;94.50;;;;;;5063755;28;20210;-63
2023/11/24 04:11:54;;;;;;;14.33;9.03;;;5.60;94.50;;;;;;5069060;28;20275;-64
2023/11/24 04:14:22;;;;;;;14.50;7.93;;;5.60;94.50;;;;;;5061829;28;20202;-64
2023/11/24 04:16:49;;;;;;;11.73;8.70;;;5.60;94.50;;;;;;5071245;28;20210;-64
2023/11/24 04:19:16;;;;;;;12.50;7.97;;;5.60;94.40;;;;;;5054829;28;20197;-64
2023/11/24 04:21:43;;;;;;;13.73;8.43;;;5.60;94.30;;;;;;5064708;28;20284;-64
2023/11/24 04:24:10;;;;;;;13.73;8.13;;;5.50;94.40;;;;;;5065083;28;20663;-64
2023/11/24 04:26:37;;;;;;;10.73;7.73;;;5.50;94.40;;;;;;5047448;28;20210;-64
2023/11/24 04:29:04;;;;;;;9.47;7.70;;;5.50;94.40;;;;;;5065389;28;20206;-64
2023/11/24 04:31:31;;;;;;;16.83;8.27;;;5.50;94.40;;;;;;5066412;28;20243;-64
2023/11/24 04:33:59;;;;;;;10.67;6.80;;;5.40;94.40;;;;;;5063701;28;20301;-64
2023/11/24 04:36:28;;;;;;;9.17;7.10;;;5.40;94.40;;;;;;5067580;28;20197;-64
2023/11/24 04:38:55;;;;;;;13.53;7.87;;;5.30;94.30;;;;;;5068501;28;20213;-64
2023/11/24 04:41:22;;;;;;;9.83;6.53;;;5.30;94.40;;;;;;5067523;28;20201;-63
2023/11/24 04:43:49;;;;;;;9.50;7.20;;;5.30;94.40;;;;;;5059942;28;20214;-64
2023/11/24 04:46:16;;;;;;;11.87;7.00;;;5.30;94.40;;;;;;5064506;28;20205;-64
2023/11/24 04:48:43;;;;;;;10.73;6.87;;;5.20;94.40;;;;;;5064792;28;20197;-64
2023/11/24 04:51:10;;;;;;;10.00;6.90;;;5.20;94.50;;;;;;5072077;28;20212;-64
2023/11/24 04:53:37;;;;;;;9.17;6.37;;;5.20;94.50;;;;;;5051308;28;20250;-65
2023/11/24 04:56:08;;;;;;;10.47;7.07;;;5.20;94.50;;;;;;5061733;28;20197;-65
2023/11/24 04:58:35;;;;;;;9.33;6.70;;;5.20;94.50;;;;;;5064347;28;20205;-65
2023/11/24 05:01:02;;;;;;;10.70;6.97;;;5.20;94.40;;;;;;5065064;28;20207;-65
2023/11/24 05:03:31;;;;;;;11.40;7.43;;;5.20;94.40;;;;;;5064048;28;20235;-65
2023/11/24 05:05:58;;;;;;;9.73;7.30;;;5.10;94.40;;;;;;5063028;28;20229;-64
2023/11/24 05:08:25;;;;;;;10.73;7.67;;;5.10;94.40;;;;;;5061690;28;20231;-64
2023/11/24 05:10:52;;;;;;;12.10;7.73;;;5.10;94.50;;;;;;5066554;28;20651;-64
2023/11/24 05:13:19;;;;;;;11.57;8.13;;;5.10;94.40;;;;;;5061933;28;20204;-64
2023/11/24 05:15:46;;;;;;;11.53;7.73;;;5.00;94.30;;;;;;5065626;28;20193;-65
2023/11/24 05:18:13;;;;;;;11.67;7.87;;;5.10;94.30;;;;;;5067800;28;20650;-64
2023/11/24 05:20:40;;;;;;;11.47;7.70;;;5.10;94.30;;;;;;5061029;28;20539;-64
2023/11/24 05:23:07;;;;;;;13.63;8.37;;;5.10;94.20;;;;;;5064693;28;20259;-64
2023/11/24 05:25:34;;;;;;;11.57;7.20;;;5.00;94.30;;;;;;5063538;28;20209;-64
2023/11/24 05:28:01;;;;;;;12.53;7.10;;;5.00;94.40;;;;;;5055743;28;20209;-64
2023/11/24 05:30:28;;;;;;;10.40;7.30;;;5.00;94.40;;;;;;5058369;28;20619;-64
2023/11/24 05:32:55;;;;;;;10.67;7.67;;;5.00;94.50;;;;;;5061622;28;20204;-64
2023/11/24 05:35:22;;;;;;;10.67;7.43;;;4.90;94.40;;;;;;5062913;28;20229;-65
2023/11/24 05:37:49;;;;;;;10.87;7.60;;;4.80;94.30;;;;;;5064819;28;20201;-64
2023/11/24 05:40:16;;;;;;;13.93;7.13;;;4.80;94.40;;;;;;5061948;28;20205;-65
2023/11/24 05:42:43;;;;;;;10.53;7.37;;;4.80;94.40;;;;;;5048190;28;20620;-63
2023/11/24 05:45:12;;;;;;;11.10;8.20;;;4.80;94.50;;;;;;5052974;28;20197;-64
2023/11/24 05:47:39;;;;;;;14.70;7.57;;;4.70;94.50;;;;;;5068150;28;20682;-64
2023/11/24 05:50:07;;;;;;;12.30;7.37;;;4.70;94.50;;;;;;5064200;28;20225;-64
2023/11/24 05:52:34;;;;;;;11.07;7.10;;;4.70;94.50;;;;;;5064990;28;20265;-64
2023/11/24 05:55:01;;;;;;;14.17;7.97;;;4.70;94.50;;;;;;5062036;28;20235;-64
2023/11/24 05:57:29;;;;;;;13.67;7.50;;;4.60;94.40;;;;;;5054393;28;20205;-64
2023/11/24 05:59:57;;;;;;;10.33;6.50;;;4.60;94.50;;;;;;5064178;28;20229;-64
2023/11/24 06:02:25;;;;;;;9.43;6.77;;;4.60;94.60;;;;;;5052078;28;20289;-64
2023/11/24 06:04:52;;;;;;;11.87;7.50;;;4.60;94.70;;;;;;5059927;28;20247;-64
2023/11/24 06:07:20;;;;;;;11.97;7.00;;;4.60;95.00;;;;;;5067401;28;20199;-64
2023/11/24 06:09:47;;;;;;;9.50;7.00;;;4.60;94.70;;;;;;5063187;28;20661;-64
2023/11/24 06:12:14;;;;;;;9.93;7.50;;;4.50;94.70;;;;;;5063537;28;20205;-64
2023/11/24 06:14:41;;;;;;;10.90;7.30;;;4.50;94.70;;;;;;5061102;28;20209;-64
2023/11/24 06:17:08;;;;;;;11.07;6.67;;;4.50;94.60;;;;;;5063319;28;20288;-63
2023/11/24 06:19:35;;;;;;;10.23;6.73;;;4.50;94.50;;;;;;5066069;28;20193;-63
2023/11/24 06:22:02;;;;;;;14.23;7.33;;;4.40;94.50;;;;;;5061979;28;20645;-63
2023/11/24 06:24:29;;;;;;;11.60;7.37;;;4.40;94.60;;;;;;5065958;28;20212;-63
2023/11/24 06:26:57;;;;;;;10.80;6.60;;;4.40;94.70;;;;;;5061589;28;20635;-64
2023/11/24 06:29:24;;;;;;;8.63;6.43;;;4.40;94.70;;;;;;5063130;28;20214;-64
2023/11/24 06:31:51;;;;;;;9.33;6.33;;;4.40;94.70;;;;;;5051384;28;20206;-63
2023/11/24 06:34:19;;;;;;;9.70;6.10;;;4.40;94.70;;;;;;5063983;28;20226;-63
2023/11/24 06:36:46;;;;;;;7.80;5.70;;;4.40;94.70;;;;;;5064848;28;20189;-63
2023/11/24 06:39:13;;;;;;;8.47;6.17;;;4.40;94.70;;;;;;5064310;28;20284;-64
2023/11/24 06:41:41;;;;;;;12.83;6.73;;;4.50;94.80;;;;;;5058661;28;20284;-64
2023/11/24 06:44:08;;;;;;;8.60;6.37;;;4.40;94.70;;;;;;5067158;28;20276;-64
2023/11/24 06:46:36;;;;;;;11.20;6.67;;;4.50;94.80;;;;;;5066421;28;20200;-64
2023/11/24 06:49:05;;;;;;;15.50;6.07;;;4.50;94.80;;;;;;5069053;28;20284;-64
2023/11/24 06:51:32;;;;;;;9.20;6.97;;;4.50;94.80;;;;;;5068548;28;20549;-64
2023/11/24 06:53:59;;;;;;;8.97;6.10;;;4.60;94.90;;;;;;5063282;28;20627;-64
2023/11/24 06:56:29;;;;;;;9.87;6.50;;;4.70;95.00;;;;;;5066029;28;20608;-64
2023/11/24 06:58:56;;;;;;;8.53;5.87;;;4.80;95.00;;;;;;5065368;28;20289;-64
2023/11/24 07:01:34;;;;;;;9.03;7.03;;;4.90;94.70;;;;;;5065875;28;20202;-64
2023/11/24 07:04:02;;;;;;;15.80;7.67;;;5.00;94.50;;;;;;5054210;28;20315;-65
2023/11/24 07:06:30;;;;;;;13.60;6.97;;;5.10;94.40;;;;;;5056410;28;20221;-64
2023/11/24 07:08:58;;;;;;;9.70;6.47;;;5.10;94.40;;;;;;5065847;28;20216;-64
2023/11/24 07:11:25;;;;;;;11.97;7.07;;;5.20;94.50;;;;;;5068821;28;20527;-63
2023/11/24 07:13:52;;;;;;;8.97;6.13;;;5.20;94.60;;;;;;5053628;28;20207;-63
2023/11/24 07:16:19;;;;;;;9.20;5.90;;;5.30;94.60;;;;;;5067249;28;20224;-63
2023/11/24 07:18:47;;;;;;;10.40;6.50;;;5.30;94.50;;;;;;5070313;28;20201;-64
2023/11/24 07:21:15;;;;;;;12.37;6.77;;;5.30;94.50;;;;;;5065394;28;20198;-64
2023/11/24 07:23:42;;;;;;;12.27;5.77;;;5.40;94.50;;;;;;5065212;28;20190;-64
2023/11/24 07:26:14;;;;;;;8.80;6.17;;;5.40;94.50;;;;;;5067338;28;20661;-64
2023/11/24 07:28:44;;;;;;;11.50;6.80;;;5.50;94.50;;;;;;5056731;28;20187;-64
2023/11/24 07:31:14;;;;;;;9.53;6.50;;;5.50;94.40;;;;;;5067245;28;20209;-65
2023/11/24 07:33:42;;;;;;;9.80;7.00;;;5.60;94.40;;;;;;5065645;28;20198;-64
2023/11/24 07:36:09;;;;;;;9.07;6.63;;;5.60;94.50;;;;;;5067531;28;20227;-64
2023/11/24 07:38:36;;;;;;;14.03;6.37;;;5.70;94.50;;;;;;5068489;28;20679;-64
2023/11/24 07:41:04;;;;;;;9.23;6.67;;;5.80;94.50;;;;;;5064124;28;20208;-64
2023/11/24 07:43:31;;;;;;;11.13;6.03;;;5.90;94.60;;;;;;5065717;28;20187;-64
2023/11/24 07:45:58;;;;;;;14.30;6.70;;;6.00;94.50;;;;;;5070366;28;20295;-64
2023/11/24 07:48:26;;;;;;;10.73;6.80;;;6.10;94.40;;;;;;5068203;28;20198;-64
2023/11/24 07:50:53;;;;;;;9.07;6.13;;;6.10;94.30;;;;;;5057470;28;20205;-65
2023/11/24 07:53:20;;;;;;;11.47;6.33;;;6.20;94.20;;;;;;5065182;28;20202;-64
2023/11/24 07:55:49;;;;;;;11.00;6.70;;;6.20;94.20;;;;;;5067570;28;20293;-65
2023/11/24 07:58:16;;;;;;;8.23;6.10;;;6.30;94.30;;;;;;5067047;28;20194;-64
2023/11/24 08:00:44;;;;;;;10.73;6.30;;;6.30;94.30;;;;;;5066683;28;20198;-65
2023/11/24 08:03:12;;;;;;;10.47;6.97;;;6.40;94.30;;;;;;5053286;28;20517;-66
2023/11/24 08:05:40;;;;;;;10.90;6.90;;;6.40;94.30;;;;;;5064310;28;20546;-65
2023/11/24 08:08:08;;;;;;;12.43;6.40;;;6.50;94.30;;;;;;5064758;28;20267;-67
2023/11/24 08:10:35;;;;;;;10.53;7.03;;;6.60;94.70;;;;;;5055855;28;20222;-64
2023/11/24 08:13:02;;;;;;;9.40;6.63;;;6.70;94.40;;;;;;5067792;28;20611;-66
2023/11/24 08:15:29;;;;;;;13.87;6.60;;;6.80;94.40;;;;;;5065107;28;20292;-64
2023/11/24 08:17:57;;;;;;;12.40;7.70;;;6.90;94.40;;;;;;5066236;28;20517;-65
2023/11/24 08:20:24;;;;;;;17.53;7.70;;;7.00;94.50;;;;;;5046411;28;20286;-65
2023/11/24 08:22:51;;;;;;;10.97;7.13;;;7.10;94.50;;;;;;5069194;28;20200;-65
2023/11/24 08:25:18;;;;;;;11.80;7.20;;;7.20;94.40;;;;;;5065880;28;20210;-65
2023/11/24 08:27:46;;;;;;;11.97;6.73;;;7.40;94.40;;;;;;5064779;28;20218;-65
2023/11/24 08:30:14;;;;;;;10.83;7.23;;;7.50;94.30;;;;;;5063613;28;20229;-65
2023/11/24 08:32:41;;;;;;;9.47;6.50;;;7.70;94.20;;;;;;5062717;28;20252;-65
2023/11/24 08:35:12;;;;;;;10.47;6.13;;;7.80;94.10;;;;;;5070021;28;20706;-65
2023/11/24 08:37:39;;;;;;;8.20;6.07;;;8.00;93.90;;;;;;5065811;28;20193;-65
2023/11/24 08:40:11;;;;;;;11.13;6.27;;;8.10;93.80;;;;;;5065289;28;20191;-66
2023/11/24 08:42:38;;;;;;;12.43;7.63;;;8.30;93.70;;;;;;5066621;28;20239;-66
2023/11/24 08:45:06;;;;;;;9.80;6.30;;;8.40;93.60;;;;;;5071348;28;20536;-66
2023/11/24 08:47:33;;;;;;;12.77;7.17;;;8.60;93.50;;;;;;5067047;28;20194;-66
2023/11/24 08:50:01;;;;;;;10.30;7.10;;;8.70;93.30;;;;;;5065478;28;20253;-66
2023/11/24 08:52:28;;;;;;;13.73;7.63;;;8.90;93.20;;;;;;5070424;28;20634;-66
2023/11/24 08:54:55;;;;;;;16.50;7.53;;;9.00;93.00;;;;;;5039017;28;20218;-66
2023/11/24 08:57:22;;;;;;;10.70;6.73;;;9.20;92.90;;;;;;5063241;28;20222;-66
2023/11/24 08:59:49;;;;;;;14.53;6.83;;;9.30;92.70;;;;;;5064332;28;20299;-66
2023/11/24 09:02:16;;;;;;;10.77;7.60;;;9.40;92.40;;;;;;5063940;28;20491;-66
2023/11/24 09:04:44;;;;;;;10.93;7.50;;;9.60;92.20;;;;;;5066031;28;20589;-66
2023/11/24 09:07:12;;;;;;;16.63;7.40;;;9.70;92.00;;;;;;5064617;28;20204;-66
2023/11/24 09:09:41;;;;;;;13.83;7.37;;;9.80;91.80;;;;;;5064330;28;20637;-66
2023/11/24 09:12:08;;;;;;;9.23;6.73;;;9.80;91.70;;;;;;5066714;28;20262;-66
2023/11/24 09:14:38;;;;;;;14.37;8.70;;;10.00;91.90;;;;;;5066189;28;20673;-66
2023/11/24 09:17:09;;;;;;;17.23;9.13;;;10.10;91.50;;;;;;5058742;28;20204;-66
2023/11/24 09:19:36;;;;;;;17.17;10.93;;;10.20;91.40;;;;;;5061445;28;20198;-65
2023/11/24 09:22:05;;;;;;;14.73;9.33;;;10.30;91.30;;;;;;5063929;28;20498;-66
2023/11/24 09:24:33;;;;;;;13.83;9.70;;;10.40;91.10;;;;;;5067881;28;20209;-65
2023/11/24 09:27:00;;;;;;;17.57;9.87;;;10.40;91.00;;;;;;5067838;28;20274;-65
2023/11/24 09:29:27;;;;;;;19.17;10.60;;;10.50;90.90;;;;;;5062273;28;20192;-65
2023/11/24 09:31:57;;;;;;;15.13;9.93;;;10.60;90.90;;;;;;5065149;28;20188;-65
2023/11/24 09:34:25;;;;;;;19.97;11.90;;;10.60;90.80;;;;;;5069799;28;20202;-66
2023/11/24 09:36:54;;;;;;;15.97;10.87;;;10.70;90.80;;;;;;5062159;28;20198;-65
2023/11/24 09:39:25;;;;;;;13.90;10.33;;;10.80;90.70;;;;;;5068685;28;20208;-65
2023/11/24 09:41:53;;;;;;;16.07;11.60;;;10.90;90.70;;;;;;5063757;28;20195;-66
2023/11/24 09:44:21;;;;;;;16.43;11.23;;;10.90;90.50;;;;;;5060932;28;20275;-65
2023/11/24 09:46:49;;;;;;;20.83;11.77;;;11.00;90.40;;;;;;5048759;28;20201;-66
2023/11/24 09:49:22;;;;;;;14.70;10.70;;;11.10;90.30;;;;;;5067208;28;20204;-66
2023/11/24 09:51:49;;;;;;;16.77;11.77;;;11.20;90.20;;;;;;5067533;28;20198;-65
2023/11/24 09:54:17;;;;;;;22.37;16.23;;;11.30;90.20;;;;;;5062718;28;20202;-65
2023/11/24 09:56:45;;;;;;;23.27;14.97;;;11.30;90.10;;;;;;5064246;28;20235;-65
2023/11/24 09:59:13;;;;;;;21.40;14.30;;;11.40;89.80;;;;;;5046888;28;20228;-65
2023/11/24 10:01:41;;;;;;;23.30;15.13;;;11.50;89.40;;;;;;5063916;28;20601;-65
2023/11/24 10:04:09;;;;;;;22.07;13.97;;;11.60;89.20;;;;;;5051361;28;20541;-65
2023/11/24 10:06:39;;;;;;;25.10;14.73;;;11.70;89.00;;;;;;5063558;28;20200;-65
2023/11/24 10:09:06;;;;;;;19.27;14.03;;;11.70;88.60;;;;;;5060709;28;20557;-65
2023/11/24 10:11:35;;;;;;;24.80;15.00;;;11.80;88.30;;;;;;5063319;28;20204;-66
2023/11/24 10:14:06;;;;;;;22.33;14.20;;;11.90;88.20;;;;;;5051147;28;20214;-66
2023/11/24 10:16:33;;;;;;;22.70;13.30;;;11.90;88.00;;;;;;5060857;28;20236;-65
2023/11/24 10:19:03;;;;;;;20.47;15.00;;;12.00;87.70;;;;;;5046374;28;20196;-65
2023/11/24 10:21:30;;;;;;;20.50;13.63;;;12.00;87.50;;;;;;5064994;28;20201;-66
2023/11/24 10:24:00;;;;;;;18.43;14.30;;;12.10;87.30;;;;;;5067093;28;20632;-65
2023/11/24 10:26:28;;;;;;;22.00;14.33;;;12.20;86.70;;;;;;5068375;28;20196;-66
2023/11/24 10:28:57;;;;;;;22.70;15.87;;;12.20;86.40;;;;;;5063617;28;20209;-65
2023/11/24 10:31:24;;;;;;;22.63;15.57;;;12.30;86.00;;;;;;5065940;28;20198;-64
2023/11/24 10:33:51;;;;;;;21.47;14.57;;;12.30;85.70;;;;;;5067438;28;20232;-63
2023/11/24 10:36:24;;;;;;;23.77;14.87;;;12.30;85.20;;;;;;5070729;28;20216;-64
2023/11/24 10:39:03;;;;;;;23.90;15.57;;;12.40;84.80;;;;;;5069316;28;20209;-65
2023/11/24 10:41:35;;;;;;;24.37;15.57;;;12.40;85.00;;;;;;5069628;28;20209;-64
2023/11/24 10:44:03;;;;;;;23.63;15.00;;;12.40;84.70;;;;;;5066971;28;20192;-65
2023/11/24 10:46:35;;;;;;;22.83;14.70;;;12.50;84.70;;;;;;5068292;28;20562;-65
2023/11/24 10:49:16;;;;;;;21.23;14.43;;;12.50;84.50;;;;;;5057127;28;20307;-65
2023/11/24 10:51:52;;;;;;;23.37;14.50;;;12.60;83.90;;;;;;5075629;28;20203;-66
2023/11/24 10:54:25;;;;;;;21.40;12.97;;;12.70;84.00;;;;;;5065307;28;20280;-65
2023/11/24 10:56:57;;;;;;;21.00;12.93;;;12.70;83.40;;;;;;5060651;28;20592;-65
2023/11/24 10:59:28;;;;;;;20.37;13.53;;;12.80;82.90;;;;;;5061845;28;20209;-63
2023/11/24 11:01:57;;;;;;;27.13;14.57;;;12.80;82.60;;;;;;5057801;28;20209;-63
2023/11/24 11:04:26;;;;;;;21.33;13.67;;;12.90;82.90;;;;;;5070279;28;20249;-66
2023/11/24 11:07:08;;;;;;;23.40;14.17;;;12.90;81.90;;;;;;5063508;28;20227;-65
2023/11/24 11:09:48;;;;;;;21.07;13.20;;;13.00;82.00;;;;;;5065438;28;20280;-66
2023/11/24 11:12:29;;;;;;;19.93;12.50;;;13.10;81.60;;;;;;5068671;28;20196;-64
2023/11/24 11:14:57;;;;;;;21.23;13.70;;;13.20;81.70;;;;;;5066732;28;20288;-65
2023/11/24 11:17:27;;;;;;;19.30;12.40;;;13.20;81.30;;;;;;5067529;28;20236;-64
2023/11/24 11:19:58;;;;;;;22.07;13.80;;;13.30;81.30;;;;;;5064813;28;20213;-65
2023/11/24 11:22:32;;;;;;;27.80;14.17;;;13.40;81.40;;;;;;5046251;28;20253;-65
2023/11/24 11:25:27;;;;;;;22.57;12.23;;;13.50;81.20;;;;;;5069292;28;20283;-64
2023/11/24 11:27:57;;;;;;;22.40;14.50;;;13.60;80.60;;;;;;5069178;28;20216;-66
2023/11/24 11:30:26;;;;;;;19.43;13.03;;;13.70;80.10;;;;;;5066287;28;20528;-66
2023/11/24 11:33:03;;;;;;;23.90;13.30;;;13.70;80.40;;;;;;5064632;28;20280;-64
2023/11/24 11:35:35;;;;;;;24.80;13.87;;;13.80;80.60;;;;;;5068001;28;20220;-62
2023/11/24 11:38:03;;;;;;;18.50;11.97;;;13.90;80.60;;;;;;5048060;28;20198;-65
2023/11/24 11:40:35;;;;;;;19.27;13.03;;;14.10;80.40;;;;;;5065461;28;20194;-64
2023/11/24 11:43:09;;;;;;;19.40;13.60;;;14.10;79.70;;;;;;5061634;28;20201;-64
2023/11/24 11:45:47;;;;;;;23.63;14.17;;;14.20;79.40;;;;;;5069271;28;20662;-65
2023/11/24 11:48:15;;;;;;;21.77;13.47;;;14.20;79.00;;;;;;5065150;28;20685;-63
2023/11/24 11:50:58;;;;;;;25.60;13.13;;;14.30;79.60;;;;;;5068294;28;20526;-64
2023/11/24 11:53:29;;;;;;;19.53;11.90;;;14.30;79.00;;;;;;5071562;28;20198;-63
2023/11/24 11:55:58;;;;;;;22.27;12.70;;;14.40;78.90;;;;;;5061069;28;20214;-64
2023/11/24 11:58:27;;;;;;;22.47;13.40;;;14.40;78.10;;;;;;5063649;28;20201;-63
2023/11/24 12:00:55;;;;;;;22.77;12.00;;;14.50;77.60;;;;;;5064269;28;20222;-64
2023/11/24 12:03:25;;;;;;;25.60;13.87;;;14.60;77.20;;;;;;5046917;28;20271;-64
2023/11/24 12:05:52;;;;;;;16.90;12.83;;;14.60;76.30;;;;;;5066351;28;20256;-65
2023/11/24 12:08:22;;;;;;;19.13;13.00;;;14.60;76.30;;;;;;5060455;28;20677;-66
2023/11/24 12:10:49;;;;;;;24.77;13.50;;;14.70;76.70;;;;;;5065269;28;20844;-63
2023/11/24 12:13:16;;;;;;;20.77;13.37;;;14.70;75.80;;;;;;5055563;28;20205;-64
2023/11/24 12:15:43;;;;;;;23.03;12.57;;;14.70;75.20;;;;;;5064247;28;20659;-64
2023/11/24 12:18:14;;;;;;;19.87;12.80;;;14.70;75.40;;;;;;5060164;28;20198;-65
2023/11/24 12:20:44;;;;;;;20.43;13.40;;;14.70;75.80;;;;;;5051570;28;20297;-64
2023/11/24 12:23:13;;;;;;;21.47;13.97;;;14.70;75.70;;;;;;5068216;28;20227;-65
2023/11/24 12:25:41;;;;;;;20.53;13.13;;;14.80;75.50;;;;;;5065691;28;20207;-66
2023/11/24 12:28:10;;;;;;;17.83;12.17;;;14.80;75.40;;;;;;5063406;28;20572;-64
2023/11/24 12:30:44;;;;;;;36.03;14.43;;;14.80;75.50;;;;;;5048187;28;20250;-64
2023/11/24 12:33:14;;;;;;;24.53;12.13;;;14.80;74.90;;;;;;5059053;28;20221;-62
2023/11/24 12:35:48;;;;;;;21.10;12.90;;;14.70;74.70;;;;;;5068898;28;20238;-63
2023/11/24 12:38:15;;;;;;;26.67;12.77;;;14.70;74.50;;;;;;5064289;28;20221;-64
2023/11/24 12:40:43;;;;;;;22.30;12.63;;;14.70;75.00;;;;;;5053502;28;20599;-64
2023/11/24 12:43:18;;;;;;;22.43;11.90;;;14.60;73.50;;;;;;5068356;28;20198;-63
2023/11/24 12:45:49;;;;;;;20.77;12.80;;;14.50;73.40;;;;;;5061650;28;20193;-62